createdAt,value
2018-03-27T00:00:17.175Z,99.90
2018-03-27T00:02:44.983Z,99.90
2018-03-27T00:05:15.663Z,99.90
2018-03-27T00:07:43.995Z,99.90
2018-03-27T00:10:13.042Z,99.90
2018-03-27T00:12:40.544Z,99.90
2018-03-27T00:15:08.890Z,99.90
2018-03-27T00:17:37.908Z,99.90
2018-03-27T00:20:06.293Z,99.90
2018-03-27T00:22:34.559Z,99.90
2018-03-27T00:25:02.851Z,99.90
2018-03-27T00:27:42.570Z,99.90
2018-03-27T00:30:22.665Z,99.90
2018-03-27T00:33:02.227Z,99.90
2018-03-27T00:35:41.685Z,99.90
2018-03-27T00:38:21.455Z,99.90
2018-03-27T00:40:49.352Z,99.80
2018-03-27T00:43:16.858Z,99.70
2018-03-27T00:45:44.472Z,99.60
2018-03-27T00:48:11.968Z,99.70
2018-03-27T00:50:39.496Z,99.80
2018-03-27T00:53:07.036Z,99.80
2018-03-27T00:55:34.527Z,99.70
2018-03-27T00:58:02.121Z,99.50
2018-03-27T01:00:30.417Z,99.40
2018-03-27T01:02:57.937Z,99.40
2018-03-27T01:05:25.458Z,99.50
2018-03-27T01:07:53.882Z,99.60
2018-03-27T01:10:21.758Z,99.50
2018-03-27T01:12:50.054Z,99.50
2018-03-27T01:15:17.582Z,99.50
2018-03-27T01:17:45.079Z,99.50
2018-03-27T01:20:12.623Z,99.60
2018-03-27T01:22:40.150Z,99.60
2018-03-27T01:25:08.442Z,99.50
2018-03-27T01:27:36.722Z,99.80
2018-03-27T01:30:05.099Z,99.80
2018-03-27T01:32:33.363Z,99.80
2018-03-27T01:35:01.649Z,99.80
2018-03-27T01:37:29.158Z,99.80
2018-03-27T01:39:56.670Z,99.90
2018-03-27T01:42:24.185Z,99.90
2018-03-27T01:44:51.708Z,99.90
2018-03-27T01:47:19.226Z,99.90
2018-03-27T01:49:47.538Z,99.90
2018-03-27T01:52:15.125Z,99.90
2018-03-27T01:54:42.953Z,99.90
2018-03-27T01:57:10.452Z,99.90
2018-03-27T01:59:37.936Z,99.90
2018-03-27T02:02:06.234Z,99.90
2018-03-27T02:04:33.748Z,99.90
2018-03-27T02:07:01.369Z,99.90
2018-03-27T02:09:28.901Z,99.90
2018-03-27T02:12:02.024Z,99.90
2018-03-27T02:14:35.140Z,99.90
2018-03-27T02:17:09.047Z,99.90
2018-03-27T02:19:42.099Z,99.90
2018-03-27T02:22:09.585Z,99.90
2018-03-27T02:24:37.590Z,99.90
2018-03-27T02:27:05.874Z,99.90
2018-03-27T02:29:33.743Z,99.90
2018-03-27T02:32:01.277Z,99.90
2018-03-27T02:34:29.543Z,99.90
2018-03-27T02:36:57.155Z,99.90
2018-03-27T02:39:24.638Z,99.90
2018-03-27T02:41:52.455Z,99.90
2018-03-27T02:44:20.753Z,99.90
2018-03-27T02:46:48.278Z,99.90
2018-03-27T02:49:16.587Z,99.90
2018-03-27T02:51:44.074Z,99.90
2018-03-27T02:54:11.591Z,99.90
2018-03-27T02:56:39.111Z,99.90
2018-03-27T02:59:06.648Z,99.90
2018-03-27T03:01:34.214Z,99.90
2018-03-27T03:04:01.754Z,99.90
2018-03-27T03:06:29.299Z,99.90
2018-03-27T03:08:56.819Z,99.90
2018-03-27T03:11:25.070Z,99.90
2018-03-27T03:13:52.596Z,99.90
2018-03-27T03:16:20.096Z,99.90
2018-03-27T03:18:48.401Z,99.90
2018-03-27T03:21:15.970Z,99.90
2018-03-27T03:23:43.504Z,99.90
2018-03-27T03:26:11.088Z,99.90
2018-03-27T03:28:38.605Z,99.90
2018-03-27T03:31:06.892Z,99.90
2018-03-27T03:33:35.161Z,99.90
2018-03-27T03:36:03.459Z,99.90
2018-03-27T03:38:31.978Z,99.90
2018-03-27T03:40:59.497Z,99.90
2018-03-27T03:43:27.021Z,99.90
2018-03-27T03:45:54.503Z,99.90
2018-03-27T03:48:22.014Z,99.90
2018-03-27T03:50:49.572Z,99.90
2018-03-27T03:53:17.091Z,99.90
2018-03-27T03:55:44.933Z,99.90
2018-03-27T03:58:13.216Z,99.90
2018-03-27T04:00:41.503Z,99.90
2018-03-27T04:03:09.030Z,99.90
2018-03-27T04:05:37.297Z,99.90
2018-03-27T04:08:04.850Z,99.90
2018-03-27T04:10:32.361Z,99.90
2018-03-27T04:12:59.919Z,99.90
2018-03-27T04:15:27.439Z,99.90
2018-03-27T04:17:55.718Z,99.90
2018-03-27T04:20:23.233Z,99.90
2018-03-27T04:22:50.736Z,99.90
2018-03-27T04:25:18.999Z,99.90
2018-03-27T04:27:46.584Z,99.90
2018-03-27T04:30:14.169Z,99.90
2018-03-27T04:32:41.702Z,99.90
2018-03-27T04:35:09.199Z,99.90
2018-03-27T04:37:37.145Z,99.90
2018-03-27T04:40:04.657Z,99.90
2018-03-27T04:42:32.182Z,99.90
2018-03-27T04:44:59.747Z,99.90
2018-03-27T04:47:27.301Z,99.90
2018-03-27T04:49:54.835Z,99.90
2018-03-27T04:52:22.350Z,99.90
2018-03-27T04:54:50.662Z,99.90
2018-03-27T04:57:18.166Z,99.90
2018-03-27T04:59:47.223Z,99.90
2018-03-27T05:02:14.768Z,99.90
2018-03-27T05:04:42.283Z,99.90
2018-03-27T05:07:09.804Z,99.90
2018-03-27T05:09:37.630Z,99.90
2018-03-27T05:12:05.171Z,99.90
2018-03-27T05:14:32.660Z,99.90
2018-03-27T05:17:00.198Z,99.90
2018-03-27T05:19:29.260Z,99.90
2018-03-27T05:21:57.695Z,99.90
2018-03-27T05:24:25.224Z,99.90
2018-03-27T05:26:53.496Z,99.90
2018-03-27T05:29:20.995Z,99.90
2018-03-27T05:31:48.512Z,99.90
2018-03-27T05:34:16.817Z,99.90
2018-03-27T05:36:44.360Z,99.90
2018-03-27T05:39:11.891Z,99.90
2018-03-27T05:41:40.228Z,99.90
2018-03-27T05:44:07.966Z,99.90
2018-03-27T05:46:35.534Z,99.90
2018-03-27T05:49:03.056Z,99.90
2018-03-27T05:51:30.594Z,99.90
2018-03-27T05:53:58.136Z,99.90
2018-03-27T05:56:25.640Z,99.90
2018-03-27T05:58:53.912Z,99.90
2018-03-27T06:01:22.225Z,99.70
2018-03-27T06:03:49.719Z,99.70
2018-03-27T06:06:17.219Z,99.60
2018-03-27T06:08:44.730Z,99.90
2018-03-27T06:11:12.294Z,99.90
2018-03-27T06:13:39.765Z,99.90
2018-03-27T06:16:08.201Z,99.30
2018-03-27T06:18:35.741Z,99.20
2018-03-27T06:21:03.252Z,99.10
2018-03-27T06:23:30.840Z,98.50
2018-03-27T06:25:58.350Z,97.80
2018-03-27T06:28:25.850Z,97.90
2018-03-27T06:30:53.426Z,97.90
2018-03-27T06:33:20.936Z,98.30
2018-03-27T06:35:49.964Z,97.80
2018-03-27T06:38:17.519Z,97.80
2018-03-27T06:40:45.037Z,97.50
2018-03-27T06:43:12.566Z,96.40
2018-03-27T06:45:40.110Z,96.40
2018-03-27T06:48:07.623Z,96.10
2018-03-27T06:50:35.392Z,96.80
2018-03-27T06:53:03.704Z,97.50
2018-03-27T06:55:31.235Z,97.40
2018-03-27T06:57:59.531Z,97.70
2018-03-27T07:00:27.070Z,97.60
2018-03-27T07:02:55.646Z,97.60
2018-03-27T07:05:23.964Z,97.70
2018-03-27T07:07:51.476Z,97.70
2018-03-27T07:10:19.003Z,97.30
2018-03-27T07:12:46.530Z,96.80
2018-03-27T07:15:14.788Z,96.10
2018-03-27T07:17:42.303Z,96.10
2018-03-27T07:20:09.827Z,95.80
2018-03-27T07:22:37.342Z,96.20
2018-03-27T07:25:05.630Z,96.20
2018-03-27T07:27:33.188Z,96.10
2018-03-27T07:30:01.494Z,96.90
2018-03-27T07:32:29.011Z,96.90
2018-03-27T07:34:56.538Z,96.90
2018-03-27T07:37:24.035Z,97.70
2018-03-27T07:39:52.346Z,97.30
2018-03-27T07:42:19.838Z,97.30
2018-03-27T07:44:47.349Z,97.60
2018-03-27T07:47:14.909Z,98.00
2018-03-27T07:49:42.394Z,97.00
2018-03-27T07:52:09.973Z,95.70
2018-03-27T07:54:38.246Z,93.90
2018-03-27T07:57:05.747Z,93.90
2018-03-27T07:59:33.346Z,94.90
2018-03-27T08:02:00.852Z,95.70
2018-03-27T08:04:28.397Z,95.70
2018-03-27T08:06:57.399Z,96.70
2018-03-27T08:09:24.973Z,96.30
2018-03-27T08:11:52.472Z,96.20
2018-03-27T08:14:20.015Z,96.10
2018-03-27T08:16:47.577Z,96.00
2018-03-27T08:19:15.087Z,96.00
2018-03-27T08:21:42.589Z,96.20
2018-03-27T08:24:10.556Z,95.80
2018-03-27T08:26:38.007Z,95.80
2018-03-27T08:29:05.534Z,95.20
2018-03-27T08:31:33.033Z,95.00
2018-03-27T08:34:00.533Z,95.00
2018-03-27T08:36:28.134Z,94.00
2018-03-27T08:38:55.751Z,93.80
2018-03-27T08:41:24.106Z,92.50
2018-03-27T08:43:51.620Z,92.50
2018-03-27T08:46:19.136Z,93.10
2018-03-27T08:48:47.415Z,93.20
2018-03-27T08:51:15.725Z,93.50
2018-03-27T08:53:43.289Z,93.50
2018-03-27T08:56:10.846Z,93.40
2018-03-27T08:58:38.297Z,93.10
2018-03-27T09:01:05.916Z,92.70
2018-03-27T09:03:34.203Z,92.70
2018-03-27T09:06:02.490Z,91.90
2018-03-27T09:08:30.124Z,91.90
2018-03-27T09:10:58.440Z,91.20
2018-03-27T09:13:25.979Z,91.20
2018-03-27T09:15:54.388Z,90.80
2018-03-27T09:18:21.940Z,90.80
2018-03-27T09:20:49.470Z,90.80
2018-03-27T09:23:17.887Z,90.40
2018-03-27T09:25:45.406Z,90.40
2018-03-27T09:28:13.668Z,88.60
2018-03-27T09:30:41.969Z,87.40
2018-03-27T09:33:10.612Z,87.30
2018-03-27T09:35:38.328Z,86.10
2018-03-27T09:38:05.892Z,83.50
2018-03-27T09:40:33.426Z,81.90
2018-03-27T09:43:00.929Z,80.20
2018-03-27T09:45:29.373Z,77.30
2018-03-27T09:47:56.878Z,76.20
2018-03-27T09:50:24.603Z,75.30
2018-03-27T09:52:52.157Z,76.50
2018-03-27T09:55:21.723Z,75.20
2018-03-27T09:57:50.040Z,76.00
2018-03-27T10:00:17.541Z,76.00
2018-03-27T10:02:45.052Z,76.20
2018-03-27T10:05:12.570Z,76.80
2018-03-27T10:07:40.879Z,76.10
2018-03-27T10:10:08.517Z,76.10
2018-03-27T10:12:37.291Z,76.40
2018-03-27T10:15:04.830Z,76.30
2018-03-27T10:17:32.352Z,74.90
2018-03-27T10:19:59.832Z,74.10
2018-03-27T10:22:27.344Z,71.80
2018-03-27T10:24:54.843Z,69.60
2018-03-27T10:27:22.416Z,65.20
2018-03-27T10:29:49.956Z,67.40
2018-03-27T10:32:17.987Z,63.10
2018-03-27T10:34:45.532Z,65.50
2018-03-27T10:37:13.909Z,62.60
2018-03-27T10:39:42.191Z,58.60
2018-03-27T10:42:09.893Z,58.60
2018-03-27T10:44:37.431Z,56.90
2018-03-27T10:47:04.972Z,58.20
2018-03-27T10:49:33.226Z,56.20
2018-03-27T10:52:01.634Z,56.50
2018-03-27T10:54:29.902Z,57.50
2018-03-27T10:56:57.480Z,57.50
2018-03-27T10:59:25.043Z,56.00
2018-03-27T11:01:52.568Z,55.60
2018-03-27T11:04:20.910Z,55.80
2018-03-27T11:06:48.458Z,55.80
2018-03-27T11:09:15.985Z,55.60
2018-03-27T11:11:43.523Z,55.30
2018-03-27T11:14:12.414Z,55.90
2018-03-27T11:16:40.787Z,55.90
2018-03-27T11:19:09.190Z,55.80
2018-03-27T11:21:36.706Z,55.80
2018-03-27T11:24:04.255Z,55.10
2018-03-27T11:26:31.791Z,54.80
2018-03-27T11:28:59.329Z,55.10
2018-03-27T11:31:26.862Z,54.50
2018-03-27T11:33:54.396Z,55.20
2018-03-27T11:36:22.783Z,56.40
2018-03-27T11:38:51.086Z,57.50
2018-03-27T11:41:19.428Z,57.20
2018-03-27T11:43:47.707Z,57.50
2018-03-27T11:46:15.995Z,57.40
2018-03-27T11:48:44.312Z,58.60
2018-03-27T11:51:11.847Z,58.60
2018-03-27T11:53:39.447Z,59.00
2018-03-27T11:56:06.991Z,59.00
2018-03-27T11:58:34.482Z,58.80
2018-03-27T12:01:02.193Z,58.90
2018-03-27T12:03:29.821Z,58.90
2018-03-27T12:05:58.186Z,62.60
2018-03-27T12:08:26.479Z,62.60
2018-03-27T12:10:54.895Z,63.30
2018-03-27T12:13:22.422Z,63.30
2018-03-27T12:15:49.998Z,62.50
2018-03-27T12:18:17.552Z,64.50
2018-03-27T12:20:45.103Z,64.50
2018-03-27T12:23:12.627Z,65.90
2018-03-27T12:25:40.207Z,67.90
2018-03-27T12:28:08.409Z,66.60
2018-03-27T12:30:35.986Z,66.20
2018-03-27T12:33:03.628Z,63.60
2018-03-27T12:35:31.263Z,62.90
2018-03-27T12:37:58.814Z,63.70
2018-03-27T12:40:27.158Z,65.40
2018-03-27T12:42:54.735Z,65.40
2018-03-27T12:45:22.277Z,65.40
2018-03-27T12:47:49.811Z,66.30
2018-03-27T12:50:17.846Z,66.70
2018-03-27T12:52:45.354Z,66.50
2018-03-27T12:55:12.913Z,67.10
2018-03-27T12:57:40.433Z,67.60
2018-03-27T13:00:08.059Z,67.80
2018-03-27T13:02:36.352Z,71.60
2018-03-27T13:05:03.895Z,71.60
2018-03-27T13:07:32.219Z,71.50
2018-03-27T13:09:59.752Z,71.40
2018-03-27T13:12:27.326Z,75.70
2018-03-27T13:14:54.874Z,80.70
2018-03-27T13:17:22.401Z,82.90
2018-03-27T13:19:50.101Z,84.30
2018-03-27T13:22:17.692Z,88.90
2018-03-27T13:24:45.216Z,89.80
2018-03-27T13:27:12.778Z,89.60
2018-03-27T13:29:40.271Z,90.20
2018-03-27T13:32:07.803Z,90.30
2018-03-27T13:34:35.342Z,90.50
2018-03-27T13:37:03.736Z,88.40
2018-03-27T13:39:31.342Z,87.10
2018-03-27T13:41:59.655Z,90.10
2018-03-27T13:44:27.342Z,90.10
2018-03-27T13:46:54.850Z,90.80
2018-03-27T13:49:22.397Z,90.40
2018-03-27T13:51:50.882Z,87.90
2018-03-27T13:54:19.294Z,87.90
2018-03-27T13:56:46.957Z,88.00
2018-03-27T13:59:14.450Z,88.30
2018-03-27T14:01:42.800Z,89.80
2018-03-27T14:04:10.389Z,89.90
2018-03-27T14:06:37.887Z,90.10
2018-03-27T14:09:06.246Z,91.40
2018-03-27T14:11:34.516Z,93.60
2018-03-27T14:14:02.957Z,94.30
2018-03-27T14:16:30.499Z,94.30
2018-03-27T14:18:58.056Z,94.60
2018-03-27T14:21:25.589Z,94.90
2018-03-27T14:23:53.170Z,94.80
2018-03-27T14:26:20.731Z,95.40
2018-03-27T14:28:48.262Z,96.00
2018-03-27T14:31:16.310Z,95.50
2018-03-27T14:33:44.658Z,96.10
2018-03-27T14:36:12.483Z,96.10
2018-03-27T14:38:40.055Z,96.90
2018-03-27T14:41:07.554Z,95.40
2018-03-27T14:43:35.900Z,96.80
2018-03-27T14:46:03.440Z,96.90
2018-03-27T14:48:30.961Z,96.00
2018-03-27T14:50:58.860Z,97.70
2018-03-27T14:53:26.397Z,98.00
2018-03-27T14:55:54.698Z,97.70
2018-03-27T14:58:22.257Z,97.70
2018-03-27T15:00:49.794Z,98.50
2018-03-27T15:03:18.102Z,99.50
2018-03-27T15:05:45.646Z,99.50
2018-03-27T15:08:13.188Z,99.30
2018-03-27T15:10:41.487Z,98.80
2018-03-27T15:13:08.989Z,98.80
2018-03-27T15:15:36.905Z,98.40
2018-03-27T15:18:04.512Z,98.50
2018-03-27T15:20:32.045Z,97.90
2018-03-27T15:22:59.584Z,97.30
2018-03-27T15:25:27.182Z,98.00
2018-03-27T15:27:54.707Z,98.30
2018-03-27T15:30:22.274Z,97.40
2018-03-27T15:32:49.794Z,97.40
2018-03-27T15:35:17.338Z,98.00
2018-03-27T15:37:45.646Z,99.10
2018-03-27T15:40:13.934Z,98.30
2018-03-27T15:42:41.466Z,98.20
2018-03-27T15:45:10.033Z,99.40
2018-03-27T15:47:37.627Z,99.40
2018-03-27T15:50:05.123Z,98.80
2018-03-27T15:52:32.644Z,99.60
2018-03-27T15:55:00.142Z,99.90
2018-03-27T15:57:27.928Z,99.90
2018-03-27T15:59:56.276Z,99.90
2018-03-27T16:02:23.853Z,99.90
2018-03-27T16:04:51.341Z,99.90
2018-03-27T16:07:18.891Z,99.90
2018-03-27T16:09:47.230Z,99.90
2018-03-27T16:12:14.764Z,99.90
2018-03-27T16:14:42.301Z,99.90
2018-03-27T16:17:10.977Z,99.90
2018-03-27T16:19:38.767Z,99.90
2018-03-27T16:22:06.297Z,99.90
2018-03-27T16:24:34.562Z,99.90
2018-03-27T16:27:02.154Z,99.90
2018-03-27T16:29:29.675Z,99.90
2018-03-27T16:31:57.555Z,99.90
2018-03-27T16:34:25.919Z,99.90
2018-03-27T16:36:53.481Z,99.90
2018-03-27T16:39:22.048Z,99.90
2018-03-27T16:41:49.626Z,99.90
2018-03-27T16:44:17.211Z,99.90
2018-03-27T16:46:44.767Z,99.90
2018-03-27T16:49:12.302Z,99.90
2018-03-27T16:51:40.584Z,99.90
2018-03-27T16:54:08.300Z,99.90
2018-03-27T16:56:35.799Z,99.90
2018-03-27T16:59:03.463Z,99.90
2018-03-27T17:01:31.820Z,99.90
2018-03-27T17:04:00.103Z,99.90
2018-03-27T17:06:28.580Z,99.90
2018-03-27T17:08:56.861Z,99.90
2018-03-27T17:11:24.395Z,99.90
2018-03-27T17:13:52.232Z,99.90
2018-03-27T17:16:19.768Z,99.90
2018-03-27T17:18:47.554Z,99.90
2018-03-27T17:21:15.075Z,99.90
2018-03-27T17:23:42.693Z,99.90
2018-03-27T17:26:11.750Z,99.90
2018-03-27T17:28:39.275Z,99.90
2018-03-27T17:31:07.830Z,99.90
2018-03-27T17:33:35.386Z,99.90
2018-03-27T17:36:02.894Z,99.90
2018-03-27T17:38:30.447Z,99.90
2018-03-27T17:40:57.957Z,99.90
2018-03-27T17:43:25.476Z,99.90
2018-03-27T17:45:53.753Z,99.90
2018-03-27T17:48:21.333Z,99.90
2018-03-27T17:50:48.902Z,99.90
2018-03-27T17:53:16.431Z,99.90
2018-03-27T17:55:43.952Z,99.90
2018-03-27T17:58:13.113Z,99.90
2018-03-27T18:00:40.623Z,99.90
2018-03-27T18:03:08.311Z,99.90
2018-03-27T18:05:36.311Z,99.90
2018-03-27T18:08:03.904Z,99.90
2018-03-27T18:10:31.404Z,99.90
2018-03-27T18:12:58.917Z,99.90
2018-03-27T18:15:27.037Z,99.90
2018-03-27T18:17:54.531Z,99.90
2018-03-27T18:20:23.775Z,99.90
2018-03-27T18:22:51.286Z,99.90
2018-03-27T18:25:21.727Z,99.90
2018-03-27T18:27:52.186Z,99.90
2018-03-27T18:30:20.055Z,99.90
2018-03-27T18:32:49.964Z,99.90
2018-03-27T18:35:17.488Z,99.90
2018-03-27T18:37:45.107Z,99.90
2018-03-27T18:40:13.238Z,99.90
2018-03-27T18:42:40.800Z,99.90
2018-03-27T18:45:08.350Z,99.90
2018-03-27T18:47:35.871Z,99.90
2018-03-27T18:50:04.306Z,99.90
2018-03-27T18:52:32.680Z,99.90
2018-03-27T18:55:00.215Z,99.90
2018-03-27T18:57:27.766Z,99.90
2018-03-27T18:59:56.069Z,99.90
2018-03-27T19:02:23.603Z,99.90
2018-03-27T19:04:52.022Z,99.90
2018-03-27T19:07:19.539Z,99.90
2018-03-27T19:09:47.104Z,99.90
2018-03-27T19:12:14.629Z,99.90
2018-03-27T19:14:42.948Z,99.90
2018-03-27T19:17:10.521Z,99.90
2018-03-27T19:19:38.059Z,99.90
2018-03-27T19:22:05.558Z,99.90
2018-03-27T19:24:33.896Z,99.90
2018-03-27T19:27:01.402Z,99.90
2018-03-27T19:29:28.951Z,99.90
2018-03-27T19:31:56.492Z,99.90
2018-03-27T19:34:24.106Z,99.90
2018-03-27T19:36:51.680Z,99.90
2018-03-27T19:39:19.313Z,99.90
2018-03-27T19:41:46.910Z,99.90
2018-03-27T19:44:15.019Z,99.90
2018-03-27T19:46:42.652Z,99.90
2018-03-27T19:49:10.898Z,99.90
2018-03-27T19:51:38.496Z,99.90
2018-03-27T19:54:06.011Z,99.90
2018-03-27T19:56:33.538Z,99.90
2018-03-27T19:59:01.232Z,99.90
2018-03-27T20:01:28.907Z,99.90
2018-03-27T20:03:56.429Z,99.90
2018-03-27T20:06:24.723Z,99.90
2018-03-27T20:08:52.541Z,99.90
2018-03-27T20:11:20.068Z,99.90
2018-03-27T20:13:47.622Z,99.90
2018-03-27T20:16:16.056Z,99.90
2018-03-27T20:18:44.143Z,99.90
2018-03-27T20:21:12.519Z,99.90
2018-03-27T20:23:40.802Z,99.90
2018-03-27T20:26:08.328Z,99.90
2018-03-27T20:28:35.853Z,99.90
2018-03-27T20:31:03.531Z,99.90
2018-03-27T20:33:31.170Z,99.90
2018-03-27T20:35:58.687Z,99.90
2018-03-27T20:38:27.005Z,99.90
2018-03-27T20:40:54.710Z,99.90
2018-03-27T20:43:22.246Z,99.90
2018-03-27T20:45:49.811Z,99.90
2018-03-27T20:48:17.342Z,99.90
2018-03-27T20:50:44.888Z,99.90
2018-03-27T20:53:12.407Z,99.90
2018-03-27T20:55:40.005Z,99.90
2018-03-27T20:58:07.535Z,99.90
2018-03-27T21:00:35.846Z,99.90
2018-03-27T21:03:03.398Z,99.90
2018-03-27T21:05:30.958Z,99.90
2018-03-27T21:07:58.514Z,99.90
2018-03-27T21:10:26.060Z,99.90
2018-03-27T21:12:53.731Z,99.90
2018-03-27T21:15:21.266Z,99.90
2018-03-27T21:17:49.634Z,99.90
2018-03-27T21:20:17.903Z,99.90
2018-03-27T21:22:45.437Z,99.90
2018-03-27T21:25:13.012Z,99.90
2018-03-27T21:27:40.531Z,99.90
2018-03-27T21:30:08.076Z,99.90
2018-03-27T21:32:35.581Z,99.90
2018-03-27T21:35:03.574Z,99.90
2018-03-27T21:37:31.864Z,99.90
2018-03-27T21:39:59.408Z,99.90
2018-03-27T21:42:27.711Z,99.90
2018-03-27T21:44:55.335Z,99.90
2018-03-27T21:47:23.639Z,99.90
2018-03-27T21:49:51.139Z,99.90
2018-03-27T21:52:18.948Z,99.90
2018-03-27T21:54:47.211Z,99.90
2018-03-27T21:57:15.604Z,99.90
2018-03-27T21:59:43.183Z,99.90
2018-03-27T22:02:10.678Z,99.90
2018-03-27T22:04:38.301Z,99.90
2018-03-27T22:07:05.876Z,99.90
2018-03-27T22:09:33.494Z,99.90
2018-03-27T22:12:01.016Z,99.90
2018-03-27T22:14:28.533Z,99.90
2018-03-27T22:16:56.056Z,99.90
2018-03-27T22:19:24.386Z,99.90
2018-03-27T22:21:52.043Z,99.90
2018-03-27T22:24:19.577Z,99.90
2018-03-27T22:26:47.108Z,99.90
2018-03-27T22:29:14.622Z,99.90
2018-03-27T22:31:42.238Z,99.90
2018-03-27T22:34:10.506Z,99.90
2018-03-27T22:36:38.911Z,99.90
2018-03-27T22:39:06.443Z,99.90
2018-03-27T22:41:34.038Z,99.90
2018-03-27T22:44:01.556Z,99.90
2018-03-27T22:46:29.166Z,99.90
2018-03-27T22:48:56.706Z,99.90
2018-03-27T22:51:24.259Z,99.90
2018-03-27T22:53:51.799Z,99.90
2018-03-27T22:56:20.094Z,99.90
2018-03-27T22:58:47.616Z,99.90
2018-03-27T23:01:15.919Z,99.90
2018-03-27T23:03:43.472Z,99.90
2018-03-27T23:06:10.993Z,99.90
2018-03-27T23:08:39.326Z,99.90
2018-03-27T23:11:06.978Z,99.90
2018-03-27T23:13:34.614Z,99.90
2018-03-27T23:16:02.892Z,99.90
2018-03-27T23:18:30.425Z,99.90
2018-03-27T23:20:58.750Z,99.90
2018-03-27T23:23:26.276Z,99.90
2018-03-27T23:25:54.582Z,99.90
2018-03-27T23:28:22.176Z,99.90
2018-03-27T23:30:49.739Z,99.90
2018-03-27T23:33:17.266Z,99.90
2018-03-27T23:35:44.784Z,99.90
2018-03-27T23:38:13.092Z,99.90
2018-03-27T23:40:40.647Z,99.90
2018-03-27T23:43:08.234Z,99.90
2018-03-27T23:45:35.751Z,99.90
2018-03-27T23:48:03.356Z,99.90
2018-03-27T23:50:30.883Z,99.90
2018-03-27T23:52:58.379Z,99.90
2018-03-27T23:55:26.647Z,99.90
2018-03-27T23:57:54.158Z,99.90
